createdAt,value
2023-01-08T00:01:10.436Z,100930.84
2023-01-08T00:03:38.280Z,100921.25
2023-01-08T00:06:07.076Z,100915.13
2023-01-08T00:08:33.900Z,100909.03
2023-01-08T00:11:01.530Z,100908.16
2023-01-08T00:13:28.803Z,100909.06
2023-01-08T00:15:55.713Z,100901.19
2023-01-08T00:18:22.600Z,100902.06
2023-01-08T00:20:49.259Z,100905.53
2023-01-08T00:23:19.155Z,100891.59
2023-01-08T00:25:46.596Z,100893.34
2023-01-08T00:28:15.136Z,100881.13
2023-01-08T00:30:42.823Z,100877.63
2023-01-08T00:33:10.737Z,100875.00
2023-01-08T00:35:41.046Z,100868.91
2023-01-08T00:38:08.076Z,100864.53
2023-01-08T00:40:36.205Z,100852.31
2023-01-08T00:43:03.580Z,100854.94
2023-01-08T00:45:30.498Z,100859.28
2023-01-08T00:47:57.356Z,100861.03
2023-01-08T00:50:24.571Z,100845.34
2023-01-08T00:52:51.277Z,100839.22
2023-01-08T00:55:18.122Z,100834.88
2023-01-08T00:57:44.906Z,100840.97
2023-01-08T01:00:15.370Z,100839.22
2023-01-08T01:02:42.128Z,100834.84
2023-01-08T01:05:10.855Z,100835.72
2023-01-08T01:07:37.603Z,100834.84
2023-01-08T01:10:04.829Z,100827.91
2023-01-08T01:12:31.510Z,100828.75
2023-01-08T01:14:58.273Z,100824.38
2023-01-08T01:17:25.088Z,100820.03
2023-01-08T01:19:51.817Z,100809.56
2023-01-08T01:22:18.495Z,100810.44
2023-01-08T01:24:45.136Z,100806.94
2023-01-08T01:27:11.783Z,100813.91
2023-01-08T01:29:38.549Z,100808.66
2023-01-08T01:32:06.226Z,100806.06
2023-01-08T01:34:33.034Z,100799.97
2023-01-08T01:36:59.768Z,100799.97
2023-01-08T01:39:26.773Z,100789.50
2023-01-08T01:41:53.548Z,100794.72
2023-01-08T01:44:43.213Z,100789.50
2023-01-08T01:47:12.816Z,100792.97
2023-01-08T01:49:43.549Z,100789.50
2023-01-08T01:52:11.761Z,100785.09
2023-01-08T01:54:38.682Z,100775.50
2023-01-08T01:57:07.873Z,100781.63
2023-01-08T01:59:34.641Z,100777.25
2023-01-08T02:02:01.613Z,100768.53
2023-01-08T02:04:28.386Z,100766.78
2023-01-08T02:07:00.047Z,100767.63
2023-01-08T02:09:48.091Z,100774.63
2023-01-08T02:12:23.263Z,100762.41
2023-01-08T02:15:30.548Z,100753.66
2023-01-08T02:18:06.087Z,100745.81
2023-01-08T02:20:37.462Z,100750.16
2023-01-08T02:23:27.781Z,100749.31
2023-01-08T02:26:04.561Z,100749.31
2023-01-08T02:28:34.366Z,100750.16
2023-01-08T02:31:01.474Z,100747.53
2023-01-08T02:33:29.819Z,100746.66
2023-01-08T02:36:30.061Z,100744.91
2023-01-08T02:39:16.845Z,100744.91
2023-01-08T02:42:06.785Z,100723.94
2023-01-08T02:44:48.738Z,100725.66
2023-01-08T02:47:27.805Z,100725.69
2023-01-08T02:50:03.627Z,100721.31
2023-01-08T02:52:33.061Z,100714.28
2023-01-08T02:55:03.123Z,100722.13
2023-01-08T02:57:32.734Z,100711.66
2023-01-08T02:59:59.395Z,100715.16
2023-01-08T03:02:32.191Z,100711.66
2023-01-08T03:05:06.545Z,100703.78
2023-01-08T03:07:34.139Z,100707.28
2023-01-08T03:10:01.215Z,100705.53
2023-01-08T03:13:03.071Z,100702.88
2023-01-08T03:15:40.741Z,100698.53
2023-01-08T03:18:13.768Z,100693.31
2023-01-08T03:20:41.371Z,100701.16
2023-01-08T03:23:11.226Z,100693.31
2023-01-08T03:25:41.712Z,100696.78
2023-01-08T03:28:15.788Z,100686.31
2023-01-08T03:30:44.279Z,100683.69
2023-01-08T03:33:13.374Z,100685.44
2023-01-08T03:35:43.014Z,100676.69
2023-01-08T03:38:29.415Z,100679.31
2023-01-08T03:41:09.714Z,100674.94
2023-01-08T03:43:36.511Z,100668.81
2023-01-08T03:46:08.250Z,100674.03
2023-01-08T03:48:36.546Z,100662.69
2023-01-08T03:51:03.348Z,100656.56
2023-01-08T03:53:30.159Z,100667.03
2023-01-08T03:55:58.637Z,100660.91
2023-01-08T03:58:25.407Z,100657.44
2023-01-08T04:00:52.779Z,100656.56
2023-01-08T04:03:19.672Z,100649.56
2023-01-08T04:05:46.599Z,100656.50
2023-01-08T04:08:13.350Z,100661.75
2023-01-08T04:10:40.189Z,100657.34
2023-01-08T04:13:06.853Z,100659.09
2023-01-08T04:15:34.398Z,100651.22
2023-01-08T04:18:01.104Z,100647.75
2023-01-08T04:20:27.815Z,100652.94
2023-01-08T04:22:54.459Z,100643.31
2023-01-08T04:25:21.334Z,100637.19
2023-01-08T04:27:48.076Z,100645.06
2023-01-08T04:30:14.733Z,100640.69
2023-01-08T04:32:41.445Z,100640.66
2023-01-08T04:35:08.560Z,100638.03
2023-01-08T04:37:35.335Z,100636.25
2023-01-08T04:40:02.006Z,100630.16
2023-01-08T04:42:28.737Z,100621.44
2023-01-08T04:44:55.410Z,100622.28
2023-01-08T04:47:22.079Z,100615.28
2023-01-08T04:49:48.759Z,100611.78
2023-01-08T04:52:15.412Z,100610.88
2023-01-08T04:54:42.069Z,100609.09
2023-01-08T04:57:08.792Z,100600.38
2023-01-08T04:59:35.542Z,100587.28
2023-01-08T05:02:02.415Z,100593.34
2023-01-08T05:04:29.246Z,100578.53
2023-01-08T05:06:55.986Z,100582.00
2023-01-08T05:09:22.874Z,100583.75
2023-01-08T05:11:49.657Z,100575.88
2023-01-08T05:14:19.999Z,100581.97
2023-01-08T05:16:47.589Z,100574.13
2023-01-08T05:19:14.400Z,100563.63
2023-01-08T05:21:41.095Z,100564.47
2023-01-08T05:24:09.354Z,100567.09
2023-01-08T05:26:42.331Z,100565.34
2023-01-08T05:29:10.477Z,100560.09
2023-01-08T05:31:37.181Z,100555.72
2023-01-08T05:34:08.164Z,100549.59
2023-01-08T05:36:35.263Z,100557.44
2023-01-08T05:39:01.928Z,100551.34
2023-01-08T05:41:28.640Z,100546.94
2023-01-08T05:43:58.416Z,100542.56
2023-01-08T05:46:27.709Z,100550.44
2023-01-08T05:48:54.425Z,100541.69
2023-01-08T05:51:21.188Z,100532.06
2023-01-08T05:53:47.827Z,100533.81
2023-01-08T05:56:14.637Z,100540.78
2023-01-08T05:58:41.434Z,100535.53
2023-01-08T06:01:13.299Z,100527.66
2023-01-08T06:03:40.277Z,100532.88
2023-01-08T06:06:08.255Z,100517.16
2023-01-08T06:08:35.396Z,100518.91
2023-01-08T06:11:09.308Z,100509.28
2023-01-08T06:13:38.070Z,100518.03
2023-01-08T06:16:05.588Z,100517.16
2023-01-08T06:18:32.364Z,100509.28
2023-01-08T06:20:59.064Z,100516.25
2023-01-08T06:23:26.140Z,100512.75
2023-01-08T06:25:54.540Z,100511.88
2023-01-08T06:28:22.634Z,100510.13
2023-01-08T06:30:49.789Z,100507.50
2023-01-08T06:33:22.698Z,100504.00
2023-01-08T06:35:49.383Z,100501.34
2023-01-08T06:38:16.289Z,100490.88
2023-01-08T06:40:42.965Z,100477.75
2023-01-08T06:43:09.646Z,100483.88
2023-01-08T06:45:36.527Z,100483.00
2023-01-08T06:48:05.500Z,100474.25
2023-01-08T06:50:35.900Z,100469.88
2023-01-08T06:53:02.632Z,100477.75
2023-01-08T06:55:29.529Z,100474.25
2023-01-08T06:58:01.990Z,100468.09
2023-01-08T07:00:28.727Z,100474.19
2023-01-08T07:02:58.832Z,100470.69
2023-01-08T07:05:25.598Z,100472.41
2023-01-08T07:07:59.057Z,100469.78
2023-01-08T07:10:26.879Z,100469.78
2023-01-08T07:12:53.617Z,100468.88
2023-01-08T07:15:20.319Z,100465.38
2023-01-08T07:17:47.128Z,100466.22
2023-01-08T07:20:14.048Z,100460.13
2023-01-08T07:22:41.114Z,100454.88
2023-01-08T07:25:10.315Z,100449.63
2023-01-08T07:27:37.099Z,100452.22
2023-01-08T07:30:07.265Z,100452.19
2023-01-08T07:32:36.134Z,100450.44
2023-01-08T07:35:03.210Z,100448.66
2023-01-08T07:37:32.172Z,100450.41
2023-01-08T07:40:00.909Z,100452.16
2023-01-08T07:42:30.355Z,100440.75
2023-01-08T07:44:57.000Z,100442.47
2023-01-08T07:47:23.667Z,100444.22
2023-01-08T07:49:52.721Z,100444.22
2023-01-08T07:52:19.464Z,100447.69
2023-01-08T07:54:46.186Z,100450.28
2023-01-08T07:57:12.876Z,100446.78
2023-01-08T07:59:39.523Z,100453.75
2023-01-08T08:02:11.262Z,100447.63
2023-01-08T08:04:38.236Z,100445.00
2023-01-08T08:07:04.973Z,100453.75
2023-01-08T08:09:31.651Z,100459.84
2023-01-08T08:11:58.675Z,100460.69
2023-01-08T08:14:25.359Z,100448.44
2023-01-08T08:16:51.982Z,100452.81
2023-01-08T08:19:18.741Z,100452.81
2023-01-08T08:21:45.403Z,100456.28
2023-01-08T08:24:12.184Z,100442.28
2023-01-08T08:26:38.887Z,100436.16
2023-01-08T08:29:05.568Z,100446.59
2023-01-08T08:31:32.345Z,100445.72
2023-01-08T08:33:59.062Z,100443.97
2023-01-08T08:36:29.615Z,100446.59
2023-01-08T08:38:57.130Z,100443.97
2023-01-08T08:41:23.996Z,100447.41
2023-01-08T08:43:51.489Z,100429.06
2023-01-08T08:46:18.456Z,100424.66
2023-01-08T08:48:46.364Z,100429.91
2023-01-08T08:51:14.108Z,100438.66
2023-01-08T08:53:40.748Z,100426.38
2023-01-08T08:56:07.794Z,100444.75
2023-01-08T08:58:34.449Z,100444.75
2023-01-08T09:01:03.854Z,100448.22
2023-01-08T09:03:30.914Z,100444.72
2023-01-08T09:05:59.766Z,100444.69
2023-01-08T09:08:27.016Z,100436.81
2023-01-08T09:10:53.689Z,100432.38
2023-01-08T09:13:20.746Z,100441.09
2023-01-08T09:15:47.517Z,100435.00
2023-01-08T09:18:15.978Z,100435.81
2023-01-08T09:20:42.846Z,100430.56
2023-01-08T09:23:09.860Z,100422.66
2023-01-08T09:25:36.571Z,100426.13
2023-01-08T09:28:06.417Z,100430.47
2023-01-08T09:30:33.686Z,100415.56
2023-01-08T09:33:02.906Z,100430.41
2023-01-08T09:35:30.659Z,100418.13
2023-01-08T09:37:57.433Z,100411.09
2023-01-08T09:40:28.896Z,100422.44
2023-01-08T09:43:01.721Z,100414.50
2023-01-08T09:45:31.206Z,100418.00
2023-01-08T09:48:05.840Z,100421.44
2023-01-08T09:50:33.933Z,100416.19
2023-01-08T09:53:01.481Z,100400.38
2023-01-08T09:55:32.925Z,100409.94
2023-01-08T09:58:03.019Z,100407.31
2023-01-08T10:00:34.007Z,100408.16
2023-01-08T10:03:00.885Z,100393.28
2023-01-08T10:05:28.552Z,100382.75
2023-01-08T10:07:55.572Z,100378.38
2023-01-08T10:10:26.316Z,100367.81
2023-01-08T10:12:54.526Z,100362.59
2023-01-08T10:15:22.725Z,100370.41
2023-01-08T10:18:20.949Z,100361.66
2023-01-08T10:20:47.591Z,100364.25
2023-01-08T10:23:19.818Z,100357.22
2023-01-08T10:25:53.197Z,100355.44
2023-01-08T10:28:31.076Z,100351.91
2023-01-08T10:31:06.429Z,100350.13
2023-01-08T10:33:42.085Z,100345.75
2023-01-08T10:36:12.097Z,100339.53
2023-01-08T10:38:50.972Z,100341.31
2023-01-08T10:41:18.644Z,100345.63
2023-01-08T10:44:07.545Z,100349.13
2023-01-08T10:46:47.686Z,100349.13
2023-01-08T10:49:33.642Z,100342.09
2023-01-08T10:52:00.926Z,100337.72
2023-01-08T10:54:31.142Z,100328.00
2023-01-08T10:56:59.363Z,100327.19
2023-01-08T10:59:27.359Z,100317.50
2023-01-08T11:01:58.472Z,100321.91
2023-01-08T11:04:34.329Z,100312.25
2023-01-08T11:07:03.684Z,100313.16
2023-01-08T11:09:39.608Z,100310.53
2023-01-08T11:12:27.249Z,100317.50
2023-01-08T11:14:53.946Z,100310.53
2023-01-08T11:17:24.723Z,100305.25
2023-01-08T11:19:51.592Z,100299.09
2023-01-08T11:22:23.597Z,100306.09
2023-01-08T11:24:52.148Z,100303.44
2023-01-08T11:27:26.908Z,100313.91
2023-01-08T11:30:22.013Z,100321.78
2023-01-08T11:33:02.652Z,100326.06
2023-01-08T11:35:36.168Z,100316.31
2023-01-08T11:38:03.470Z,100306.66
2023-01-08T11:40:50.650Z,100302.25
2023-01-08T11:43:31.805Z,100290.91
2023-01-08T11:46:25.906Z,100290.03
2023-01-08T11:49:32.962Z,100301.47
2023-01-08T11:52:18.019Z,100281.34
2023-01-08T11:55:06.944Z,100284.94
2023-01-08T11:57:33.553Z,100292.78
2023-01-08T12:00:35.657Z,100284.03
2023-01-08T12:03:08.546Z,100282.31
2023-01-08T12:05:50.751Z,100283.19
2023-01-08T12:08:33.628Z,100282.28
2023-01-08T12:11:29.331Z,100281.41
2023-01-08T12:14:23.898Z,100283.16
2023-01-08T12:16:56.344Z,100274.38
2023-01-08T12:19:45.372Z,100277.91
2023-01-08T12:22:17.765Z,100271.75
2023-01-08T12:25:05.570Z,100266.50
2023-01-08T12:27:56.462Z,100266.50
2023-01-08T12:30:39.384Z,100261.22
2023-01-08T12:33:12.382Z,100263.00
2023-01-08T12:35:44.154Z,100263.88
2023-01-08T12:38:16.881Z,100262.16
2023-01-08T12:40:54.607Z,100255.13
2023-01-08T12:43:32.416Z,100248.09
2023-01-08T12:46:01.639Z,100258.59
2023-01-08T12:48:31.786Z,100248.97
2023-01-08T12:51:21.841Z,100248.97
2023-01-08T12:54:06.805Z,100238.44
2023-01-08T12:57:21.677Z,100243.69
2023-01-08T13:00:04.177Z,100234.09
2023-01-08T13:02:49.927Z,100234.13
2023-01-08T13:05:19.287Z,100233.25
2023-01-08T13:07:52.785Z,100230.63
2023-01-08T13:10:29.800Z,100229.72
2023-01-08T13:12:57.699Z,100226.28
2023-01-08T13:15:27.207Z,100221.88
2023-01-08T13:18:03.164Z,100206.06
2023-01-08T13:20:32.185Z,100208.69
2023-01-08T13:23:05.781Z,100200.81
2023-01-08T13:25:37.554Z,100200.81
2023-01-08T13:28:43.816Z,100206.97
2023-01-08T13:31:22.778Z,100194.69
2023-01-08T13:33:52.623Z,100197.31
2023-01-08T13:36:28.585Z,100205.19
2023-01-08T13:39:20.276Z,100199.06
2023-01-08T13:42:13.211Z,100205.19
2023-01-08T13:44:47.004Z,100190.34
2023-01-08T13:47:25.439Z,100187.72
2023-01-08T13:49:54.926Z,100195.59
2023-01-08T13:52:32.649Z,100188.63
2023-01-08T13:55:03.443Z,100196.50
2023-01-08T13:57:38.112Z,100187.75
2023-01-08T14:00:08.987Z,100200.03
2023-01-08T14:02:50.488Z,100191.28
2023-01-08T14:05:23.055Z,100206.19
2023-01-08T14:07:49.812Z,100201.78
2023-01-08T14:10:17.044Z,100191.28
2023-01-08T14:12:44.172Z,100197.38
2023-01-08T14:15:22.769Z,100191.25
2023-01-08T14:17:50.072Z,100192.13
2023-01-08T14:20:24.784Z,100191.28
2023-01-08T14:22:51.693Z,100193.03
2023-01-08T14:25:22.479Z,100186.94
2023-01-08T14:27:58.344Z,100197.44
2023-01-08T14:30:25.431Z,100183.47
2023-01-08T14:32:53.125Z,100179.97
2023-01-08T14:35:28.581Z,100186.94
2023-01-08T14:37:55.955Z,100182.59
2023-01-08T14:40:59.970Z,100180.88
2023-01-08T14:43:27.541Z,100169.53
2023-01-08T14:45:54.938Z,100167.81
2023-01-08T14:48:31.363Z,100163.47
2023-01-08T14:51:20.705Z,100168.72
2023-01-08T14:54:15.161Z,100154.69
2023-01-08T14:56:41.897Z,100167.00
2023-01-08T14:59:11.454Z,100150.38
2023-01-08T15:01:38.692Z,100153.88
2023-01-08T15:04:17.961Z,100167.03
2023-01-08T15:06:44.854Z,100152.16
2023-01-08T15:09:22.849Z,100154.78
2023-01-08T15:12:00.029Z,100152.22
2023-01-08T15:14:29.283Z,100156.56
2023-01-08T15:16:59.531Z,100151.31
2023-01-08T15:19:35.184Z,100148.72
2023-01-08T15:22:02.424Z,100149.59
2023-01-08T15:24:32.218Z,100138.22
2023-01-08T15:27:09.765Z,100129.44
2023-01-08T15:29:47.080Z,100136.47
2023-01-08T15:32:16.475Z,100131.22
2023-01-08T15:34:44.442Z,100135.59
2023-01-08T15:37:12.520Z,100135.59
2023-01-08T15:39:39.193Z,100134.75
2023-01-08T15:42:51.009Z,100126.88
2023-01-08T15:45:35.390Z,100129.50
2023-01-08T15:48:02.065Z,100125.16
2023-01-08T15:50:35.366Z,100108.50
2023-01-08T15:53:02.738Z,100117.28
2023-01-08T15:55:32.455Z,100119.91
2023-01-08T15:57:59.286Z,100124.25
2023-01-08T16:00:26.230Z,100119.91
2023-01-08T16:02:54.310Z,100115.53
2023-01-08T16:05:23.959Z,100118.13
2023-01-08T16:07:51.671Z,100118.16
2023-01-08T16:10:18.921Z,100112.09
2023-01-08T16:12:47.194Z,100116.47
2023-01-08T16:15:15.490Z,100112.94
2023-01-08T16:17:43.239Z,100114.72
2023-01-08T16:20:11.280Z,100108.63
2023-01-08T16:22:43.843Z,100105.97
2023-01-08T16:25:11.084Z,100112.94
2023-01-08T16:27:45.557Z,100101.59
2023-01-08T16:30:16.242Z,100103.34
2023-01-08T16:32:50.955Z,100103.41
2023-01-08T16:35:17.661Z,100105.19
2023-01-08T16:37:44.365Z,100096.41
2023-01-08T16:40:11.815Z,100097.25
2023-01-08T16:42:38.630Z,100095.53
2023-01-08T16:45:05.946Z,100095.53
2023-01-08T16:47:37.383Z,100099.06
2023-01-08T16:50:04.946Z,100095.59
2023-01-08T16:52:31.620Z,100102.63
2023-01-08T16:54:58.279Z,100092.97
2023-01-08T16:57:24.982Z,100091.25
2023-01-08T16:59:51.611Z,100098.28
2023-01-08T17:02:19.362Z,100081.66
2023-01-08T17:04:46.004Z,100084.28
2023-01-08T17:07:15.890Z,100078.19
2023-01-08T17:09:45.630Z,100082.59
2023-01-08T17:12:12.293Z,100085.25
2023-01-08T17:14:38.955Z,100076.50
2023-01-08T17:17:05.713Z,100081.75
2023-01-08T17:19:32.802Z,100073.91
2023-01-08T17:22:02.629Z,100070.44
2023-01-08T17:24:29.356Z,100066.94
2023-01-08T17:26:57.742Z,100073.91
2023-01-08T17:29:24.575Z,100066.94
2023-01-08T17:31:51.326Z,100068.72
2023-01-08T17:34:21.052Z,100067.00
2023-01-08T17:36:47.703Z,100061.75
2023-01-08T17:39:14.354Z,100065.25
2023-01-08T17:42:05.107Z,100063.53
2023-01-08T17:44:31.793Z,100051.25
2023-01-08T17:46:58.445Z,100048.66
2023-01-08T17:49:27.858Z,100050.41
2023-01-08T17:51:54.546Z,100042.53
2023-01-08T17:54:22.469Z,100051.31
2023-01-08T17:56:52.281Z,100052.22
2023-01-08T17:59:20.688Z,100048.72
2023-01-08T18:01:48.443Z,100050.47
2023-01-08T18:04:15.818Z,100052.22
2023-01-08T18:06:43.357Z,100039.09
2023-01-08T18:09:16.168Z,100031.25
2023-01-08T18:11:43.288Z,100037.34
2023-01-08T18:14:12.282Z,100031.25
2023-01-08T18:16:39.329Z,100022.50
2023-01-08T18:19:06.611Z,100019.88
2023-01-08T18:21:35.438Z,100010.28
2023-01-08T18:24:02.137Z,100018.13
2023-01-08T18:26:29.274Z,100009.38
2023-01-08T18:28:56.122Z,100004.19
2023-01-08T18:31:23.007Z,100001.50
2023-01-08T18:33:57.559Z,99999.72
2023-01-08T18:36:24.329Z,100005.00
2023-01-08T18:38:51.587Z,100005.91
2023-01-08T18:41:40.616Z,99992.78
2023-01-08T18:44:09.027Z,99982.25
2023-01-08T18:46:36.169Z,99989.22
2023-01-08T18:49:03.292Z,99979.66
2023-01-08T18:51:29.957Z,99990.16
2023-01-08T18:53:59.407Z,99984.06
2023-01-08T18:56:31.639Z,99978.81
2023-01-08T18:58:58.863Z,99982.25
2023-01-08T19:01:26.147Z,99981.41
2023-01-08T19:03:55.478Z,99977.03
2023-01-08T19:06:22.744Z,99984.03
2023-01-08T19:08:49.690Z,99974.41
2023-01-08T19:11:19.930Z,99971.75
2023-01-08T19:13:49.224Z,99978.72
2023-01-08T19:16:18.668Z,99978.72
2023-01-08T19:18:45.403Z,99977.81
2023-01-08T19:21:17.528Z,99969.09
2023-01-08T19:23:47.729Z,99973.47
2023-01-08T19:26:14.952Z,99967.38
2023-01-08T19:28:42.812Z,99976.09
2023-01-08T19:31:13.107Z,99967.31
2023-01-08T19:33:40.633Z,99964.69
2023-01-08T19:36:12.486Z,99964.69
2023-01-08T19:38:40.456Z,99952.41
2023-01-08T19:41:28.011Z,99960.25
2023-01-08T19:43:56.723Z,99955.00
2023-01-08T19:46:23.997Z,99958.53
2023-01-08T19:48:50.850Z,99959.34
2023-01-08T19:51:17.686Z,99957.63
2023-01-08T19:53:44.444Z,99956.72
2023-01-08T19:56:13.519Z,99953.19
2023-01-08T19:58:40.542Z,99953.19
2023-01-08T20:01:22.685Z,99952.28
2023-01-08T20:03:50.139Z,99945.31
2023-01-08T20:06:19.968Z,99940.00
2023-01-08T20:08:50.739Z,99941.72
2023-01-08T20:11:17.870Z,99939.09
2023-01-08T20:13:44.773Z,99941.72
2023-01-08T20:16:14.350Z,99936.44
2023-01-08T20:18:41.702Z,99934.69
2023-01-08T20:21:11.603Z,99933.78
2023-01-08T20:23:39.106Z,99933.75
2023-01-08T20:26:07.814Z,99935.50
2023-01-08T20:28:36.381Z,99928.44
2023-01-08T20:31:15.248Z,99924.91
2023-01-08T20:33:42.822Z,99925.81
2023-01-08T20:36:12.006Z,99926.69
2023-01-08T20:38:38.781Z,99927.53
2023-01-08T20:41:06.863Z,99926.66
2023-01-08T20:43:34.541Z,99921.41
2023-01-08T20:46:01.670Z,99923.13
2023-01-08T20:48:31.991Z,99917.00
2023-01-08T20:51:03.988Z,99914.38
2023-01-08T20:53:33.683Z,99913.47
2023-01-08T20:56:15.012Z,99908.22
2023-01-08T20:58:46.010Z,99909.09
2023-01-08T21:01:19.357Z,99911.72
2023-01-08T21:03:47.132Z,99905.59
2023-01-08T21:06:19.884Z,99894.19
2023-01-08T21:08:49.307Z,99891.63
2023-01-08T21:11:16.567Z,99888.06
2023-01-08T21:13:43.554Z,99891.53
2023-01-08T21:16:18.437Z,99894.16
2023-01-08T21:18:47.648Z,99889.81
2023-01-08T21:21:23.108Z,99884.56
2023-01-08T21:23:50.563Z,99880.19
2023-01-08T21:26:18.421Z,99880.13
2023-01-08T21:28:46.585Z,99874.06
2023-01-08T21:31:16.690Z,99875.78
2023-01-08T21:33:47.613Z,99879.31
2023-01-08T21:36:20.296Z,99879.28
2023-01-08T21:38:47.439Z,99877.56
2023-01-08T21:41:38.350Z,99866.25
2023-01-08T21:44:28.181Z,99873.22
2023-01-08T21:46:54.896Z,99872.38
2023-01-08T21:49:21.598Z,99870.69
2023-01-08T21:52:06.878Z,99872.44
2023-01-08T21:54:33.522Z,99864.56
2023-01-08T21:57:00.204Z,99856.72
2023-01-08T21:59:26.918Z,99867.19
2023-01-08T22:01:53.654Z,99863.72
2023-01-08T22:04:20.366Z,99858.47
2023-01-08T22:06:47.136Z,99848.84
2023-01-08T22:09:13.775Z,99854.16
2023-01-08T22:11:40.474Z,99841.88
2023-01-08T22:14:07.127Z,99847.13
2023-01-08T22:16:33.921Z,99841.88
2023-01-08T22:19:00.712Z,99842.78
2023-01-08T22:21:27.452Z,99841.94
2023-01-08T22:23:55.889Z,99847.19
2023-01-08T22:26:23.618Z,99852.44
2023-01-08T22:28:50.514Z,99849.81
2023-01-08T22:31:17.354Z,99856.81
2023-01-08T22:33:44.314Z,99851.59
2023-01-08T22:36:13.506Z,99850.72
2023-01-08T22:38:40.485Z,99853.34
2023-01-08T22:41:16.610Z,99851.66
2023-01-08T22:43:43.350Z,99848.16
2023-01-08T22:46:13.573Z,99843.84
2023-01-08T22:48:40.459Z,99848.19
2023-01-08T22:51:07.436Z,99844.66
2023-01-08T22:53:35.034Z,99840.34
2023-01-08T22:56:01.755Z,99845.56
2023-01-08T22:58:29.311Z,99837.66
2023-01-08T23:00:55.972Z,99836.78
2023-01-08T23:03:22.614Z,99837.69
2023-01-08T23:05:49.267Z,99830.72
2023-01-08T23:08:15.955Z,99835.91
2023-01-08T23:10:42.806Z,99834.19
2023-01-08T23:13:09.438Z,99835.09
2023-01-08T23:15:36.099Z,99827.25
2023-01-08T23:18:02.818Z,99835.09
2023-01-08T23:20:29.450Z,99832.50
2023-01-08T23:23:02.140Z,99827.25
2023-01-08T23:25:30.201Z,99827.25
2023-01-08T23:27:56.851Z,99825.53
2023-01-08T23:30:23.738Z,99820.28
2023-01-08T23:32:50.470Z,99811.56
2023-01-08T23:35:17.124Z,99812.44
2023-01-08T23:37:43.771Z,99822.06
2023-01-08T23:40:11.262Z,99822.94
2023-01-08T23:42:37.959Z,99815.13
2023-01-08T23:45:05.166Z,99814.28
2023-01-08T23:47:31.933Z,99810.78
2023-01-08T23:49:58.624Z,99805.53
2023-01-08T23:52:25.477Z,99795.88
2023-01-08T23:54:52.117Z,99801.16
2023-01-08T23:57:18.780Z,99800.28
2023-01-08T23:59:45.429Z,99804.63
